sensor_id;sensor_type;location;lat;lon;timestamp;pressure;altitude;pressure_sealevel;temperature;humidity
23899;BME280;20544;50.018;20.010;2022-11-20T00:01:38;98559.75;;;-4.30;100.00
23899;BME280;20544;50.018;20.010;2022-11-20T00:04:55;98559.03;;;-4.32;100.00
23899;BME280;20544;50.018;20.010;2022-11-20T00:08:11;98560.33;;;-4.40;100.00
23899;BME280;20544;50.018;20.010;2022-11-20T00:11:30;98556.53;;;-4.48;100.00
23899;BME280;20544;50.018;20.010;2022-11-20T00:14:47;98541.16;;;-4.51;100.00
23899;BME280;20544;50.018;20.010;2022-11-20T00:18:04;98556.97;;;-4.56;100.00
23899;BME280;20544;50.018;20.010;2022-11-20T00:21:22;98557.91;;;-4.57;100.00
23899;BME280;20544;50.018;20.010;2022-11-20T00:24:40;98552.73;;;-4.57;100.00
23899;BME280;20544;50.018;20.010;2022-11-20T00:27:56;98561.42;;;-4.58;100.00
23899;BME280;20544;50.018;20.010;2022-11-20T00:31:16;98560.02;;;-4.64;100.00
23899;BME280;20544;50.018;20.010;2022-11-20T00:34:33;98554.19;;;-4.67;100.00
23899;BME280;20544;50.018;20.010;2022-11-20T00:37:49;98552.25;;;-4.64;100.00
23899;BME280;20544;50.018;20.010;2022-11-20T00:41:07;98553.92;;;-4.63;100.00
23899;BME280;20544;50.018;20.010;2022-11-20T00:44:25;98543.66;;;-4.64;100.00
23899;BME280;20544;50.018;20.010;2022-11-20T00:47:42;98546.78;;;-4.74;100.00
23899;BME280;20544;50.018;20.010;2022-11-20T00:50:59;98539.12;;;-4.75;100.00
23899;BME280;20544;50.018;20.010;2022-11-20T00:54:16;98539.77;;;-4.72;100.00
23899;BME280;20544;50.018;20.010;2022-11-20T00:57:33;98534.50;;;-4.70;100.00
23899;BME280;20544;50.018;20.010;2022-11-20T01:00:49;98539.88;;;-4.73;100.00
23899;BME280;20544;50.018;20.010;2022-11-20T01:04:06;98540.23;;;-4.79;100.00
23899;BME280;20544;50.018;20.010;2022-11-20T01:07:23;98541.61;;;-4.74;100.00
23899;BME280;20544;50.018;20.010;2022-11-20T01:10:39;98528.69;;;-4.59;100.00
23899;BME280;20544;50.018;20.010;2022-11-20T01:13:57;98528.30;;;-4.67;100.00
23899;BME280;20544;50.018;20.010;2022-11-20T01:17:15;98523.42;;;-4.72;100.00
23899;BME280;20544;50.018;20.010;2022-11-20T01:20:31;98522.67;;;-4.74;100.00
23899;BME280;20544;50.018;20.010;2022-11-20T01:23:51;98522.94;;;-4.79;100.00
23899;BME280;20544;50.018;20.010;2022-11-20T01:27:08;98520.44;;;-4.80;100.00
23899;BME280;20544;50.018;20.010;2022-11-20T01:30:25;98512.22;;;-4.73;100.00
23899;BME280;20544;50.018;20.010;2022-11-20T01:33:42;98518.53;;;-4.62;100.00
23899;BME280;20544;50.018;20.010;2022-11-20T01:37:00;98514.92;;;-4.60;100.00
23899;BME280;20544;50.018;20.010;2022-11-20T01:40:16;98520.53;;;-4.67;100.00
23899;BME280;20544;50.018;20.010;2022-11-20T01:43:33;98516.11;;;-4.65;100.00
23899;BME280;20544;50.018;20.010;2022-11-20T01:46:56;98503.06;;;-4.64;100.00
23899;BME280;20544;50.018;20.010;2022-11-20T01:50:17;98518.14;;;-4.71;100.00
23899;BME280;20544;50.018;20.010;2022-11-20T01:53:40;98506.13;;;-4.72;100.00
23899;BME280;20544;50.018;20.010;2022-11-20T01:56:59;98510.74;;;-4.77;100.00
23899;BME280;20544;50.018;20.010;2022-11-20T02:00:19;98509.44;;;-4.84;100.00
23899;BME280;20544;50.018;20.010;2022-11-20T02:03:34;98512.02;;;-4.84;100.00
23899;BME280;20544;50.018;20.010;2022-11-20T02:06:53;98512.02;;;-4.84;100.00
23899;BME280;20544;50.018;20.010;2022-11-20T02:10:11;98503.34;;;-4.83;100.00
23899;BME280;20544;50.018;20.010;2022-11-20T02:13:28;98520.25;;;-4.92;100.00
23899;BME280;20544;50.018;20.010;2022-11-20T02:16:57;98509.24;;;-4.95;100.00
23899;BME280;20544;50.018;20.010;2022-11-20T02:20:14;98526.14;;;-5.04;100.00
23899;BME280;20544;50.018;20.010;2022-11-20T02:23:36;98526.70;;;-4.99;100.00
23899;BME280;20544;50.018;20.010;2022-11-20T02:26:54;98532.06;;;-5.02;100.00
23899;BME280;20544;50.018;20.010;2022-11-20T02:30:14;98528.26;;;-5.11;100.00
23899;BME280;20544;50.018;20.010;2022-11-20T02:33:31;98521.31;;;-5.10;100.00
23899;BME280;20544;50.018;20.010;2022-11-20T02:36:48;98525.17;;;-5.17;100.00
23899;BME280;20544;50.018;20.010;2022-11-20T02:40:25;98526.44;;;-5.25;100.00
23899;BME280;20544;50.018;20.010;2022-11-20T02:43:41;98521.46;;;-5.28;100.00
23899;BME280;20544;50.018;20.010;2022-11-20T02:47:00;98526.98;;;-5.34;100.00
23899;BME280;20544;50.018;20.010;2022-11-20T02:50:18;98530.36;;;-5.48;100.00
23899;BME280;20544;50.018;20.010;2022-11-20T02:53:35;98526.51;;;-5.41;100.00
23899;BME280;20544;50.018;20.010;2022-11-20T02:56:51;98522.98;;;-5.40;100.00
23899;BME280;20544;50.018;20.010;2022-11-20T03:00:12;98525.66;;;-5.41;100.00
23899;BME280;20544;50.018;20.010;2022-11-20T03:03:29;98510.55;;;-5.33;100.00
23899;BME280;20544;50.018;20.010;2022-11-20T03:06:46;98520.05;;;-5.33;100.00
23899;BME280;20544;50.018;20.010;2022-11-20T03:10:05;98514.50;;;-5.42;100.00
23899;BME280;20544;50.018;20.010;2022-11-20T03:13:22;98514.56;;;-5.43;100.00
23899;BME280;20544;50.018;20.010;2022-11-20T03:16:41;98521.18;;;-5.54;100.00
23899;BME280;20544;50.018;20.010;2022-11-20T03:19:58;98515.86;;;-5.50;100.00
23899;BME280;20544;50.018;20.010;2022-11-20T03:23:14;98509.67;;;-5.48;100.00
23899;BME280;20544;50.018;20.010;2022-11-20T03:26:31;98505.58;;;-5.52;100.00
23899;BME280;20544;50.018;20.010;2022-11-20T03:29:49;98520.45;;;-5.56;100.00
23899;BME280;20544;50.018;20.010;2022-11-20T03:33:05;98502.52;;;-5.59;100.00
23899;BME280;20544;50.018;20.010;2022-11-20T03:36:23;98499.17;;;-5.61;100.00
23899;BME280;20544;50.018;20.010;2022-11-20T03:39:40;98498.35;;;-5.61;100.00
23899;BME280;20544;50.018;20.010;2022-11-20T03:42:57;98492.42;;;-5.63;100.00
23899;BME280;20544;50.018;20.010;2022-11-20T03:46:14;98491.04;;;-5.69;100.00
23899;BME280;20544;50.018;20.010;2022-11-20T03:49:35;98488.36;;;-5.67;100.00
23899;BME280;20544;50.018;20.010;2022-11-20T03:52:52;98488.20;;;-5.64;100.00
23899;BME280;20544;50.018;20.010;2022-11-20T03:56:10;98493.44;;;-5.66;100.00
23899;BME280;20544;50.018;20.010;2022-11-20T03:59:28;98496.20;;;-5.69;100.00
23899;BME280;20544;50.018;20.010;2022-11-20T04:02:46;98489.37;;;-5.70;100.00
23899;BME280;20544;50.018;20.010;2022-11-20T04:06:06;98479.59;;;-5.65;100.00
23899;BME280;20544;50.018;20.010;2022-11-20T04:09:25;98479.03;;;-5.70;100.00
23899;BME280;20544;50.018;20.010;2022-11-20T04:12:42;98482.88;;;-5.77;100.00
23899;BME280;20544;50.018;20.010;2022-11-20T04:16:01;98482.20;;;-5.81;100.00
23899;BME280;20544;50.018;20.010;2022-11-20T04:19:18;98488.72;;;-5.90;100.00
23899;BME280;20544;50.018;20.010;2022-11-20T04:22:35;98489.97;;;-5.97;100.00
23899;BME280;20544;50.018;20.010;2022-11-20T04:25:51;98482.53;;;-6.02;100.00
23899;BME280;20544;50.018;20.010;2022-11-20T04:29:11;98480.09;;;-6.05;100.00
23899;BME280;20544;50.018;20.010;2022-11-20T04:32:29;98476.78;;;-6.07;100.00
23899;BME280;20544;50.018;20.010;2022-11-20T04:35:48;98482.01;;;-6.08;100.00
23899;BME280;20544;50.018;20.010;2022-11-20T04:39:06;98479.37;;;-6.07;100.00
23899;BME280;20544;50.018;20.010;2022-11-20T04:42:27;98481.09;;;-6.07;100.00
23899;BME280;20544;50.018;20.010;2022-11-20T04:45:43;98471.34;;;-6.02;100.00
23899;BME280;20544;50.018;20.010;2022-11-20T04:49:06;98474.02;;;-6.04;100.00
23899;BME280;20544;50.018;20.010;2022-11-20T04:52:22;98471.06;;;-5.97;100.00
23899;BME280;20544;50.018;20.010;2022-11-20T04:55:40;98468.14;;;-5.91;100.00
23899;BME280;20544;50.018;20.010;2022-11-20T04:58:59;98471.88;;;-5.81;100.00
23899;BME280;20544;50.018;20.010;2022-11-20T05:02:15;98468.85;;;-5.73;100.00
23899;BME280;20544;50.018;20.010;2022-11-20T05:05:32;98463.27;;;-5.65;100.00
23899;BME280;20544;50.018;20.010;2022-11-20T05:08:49;98464.50;;;-5.57;100.00
23899;BME280;20544;50.018;20.010;2022-11-20T05:12:06;98468.09;;;-5.59;100.00
23899;BME280;20544;50.018;20.010;2022-11-20T05:15:24;98469.73;;;-5.58;100.00
23899;BME280;20544;50.018;20.010;2022-11-20T05:18:42;98475.50;;;-5.53;100.00
23899;BME280;20544;50.018;20.010;2022-11-20T05:21:58;98468.41;;;-5.49;100.00
23899;BME280;20544;50.018;20.010;2022-11-20T05:25:15;98467.05;;;-5.41;100.00
23899;BME280;20544;50.018;20.010;2022-11-20T05:28:32;98460.27;;;-5.43;100.00
23899;BME280;20544;50.018;20.010;2022-11-20T05:31:50;98462.13;;;-5.45;100.00
23899;BME280;20544;50.018;20.010;2022-11-20T05:35:07;98460.36;;;-5.45;100.00
23899;BME280;20544;50.018;20.010;2022-11-20T05:38:26;98446.88;;;-5.50;100.00
23899;BME280;20544;50.018;20.010;2022-11-20T05:41:42;98436.63;;;-5.52;100.00
23899;BME280;20544;50.018;20.010;2022-11-20T05:45:02;98435.16;;;-5.56;100.00
23899;BME280;20544;50.018;20.010;2022-11-20T05:48:20;98434.05;;;-5.52;100.00
23899;BME280;20544;50.018;20.010;2022-11-20T05:51:37;98442.06;;;-5.56;100.00
23899;BME280;20544;50.018;20.010;2022-11-20T05:54:53;98440.58;;;-5.60;100.00
23899;BME280;20544;50.018;20.010;2022-11-20T05:58:09;98448.80;;;-5.54;100.00
23899;BME280;20544;50.018;20.010;2022-11-20T06:01:26;98451.34;;;-5.38;100.00
23899;BME280;20544;50.018;20.010;2022-11-20T06:04:44;98448.23;;;-5.28;100.00
23899;BME280;20544;50.018;20.010;2022-11-20T06:08:02;98447.02;;;-5.23;100.00
23899;BME280;20544;50.018;20.010;2022-11-20T06:11:19;98454.69;;;-5.21;100.00
23899;BME280;20544;50.018;20.010;2022-11-20T06:14:36;98446.11;;;-5.22;100.00
23899;BME280;20544;50.018;20.010;2022-11-20T06:17:56;98442.77;;;-5.24;100.00
23899;BME280;20544;50.018;20.010;2022-11-20T06:21:17;98444.70;;;-5.27;100.00
23899;BME280;20544;50.018;20.010;2022-11-20T06:24:34;98445.45;;;-5.25;100.00
23899;BME280;20544;50.018;20.010;2022-11-20T06:27:50;98447.48;;;-5.30;100.00
23899;BME280;20544;50.018;20.010;2022-11-20T06:31:09;98448.70;;;-5.52;100.00
23899;BME280;20544;50.018;20.010;2022-11-20T06:34:27;98435.16;;;-5.56;100.00
23899;BME280;20544;50.018;20.010;2022-11-20T06:37:44;98430.45;;;-5.49;100.00
23899;BME280;20544;50.018;20.010;2022-11-20T06:41:00;98428.83;;;-5.66;100.00
23899;BME280;20544;50.018;20.010;2022-11-20T06:44:17;98427.09;;;-5.65;100.00
23899;BME280;20544;50.018;20.010;2022-11-20T06:47:34;98427.87;;;-5.49;100.00
23899;BME280;20544;50.018;20.010;2022-11-20T06:50:50;98436.02;;;-5.41;100.00
23899;BME280;20544;50.018;20.010;2022-11-20T06:54:07;98435.47;;;-5.31;100.00
23899;BME280;20544;50.018;20.010;2022-11-20T06:57:23;98425.52;;;-5.23;100.00
23899;BME280;20544;50.018;20.010;2022-11-20T07:00:40;98420.80;;;-5.16;100.00
23899;BME280;20544;50.018;20.010;2022-11-20T07:03:59;98427.55;;;-5.28;100.00
23899;BME280;20544;50.018;20.010;2022-11-20T07:07:16;98430.55;;;-5.36;100.00
23899;BME280;20544;50.018;20.010;2022-11-20T07:10:34;98441.19;;;-5.41;100.00
23899;BME280;20544;50.018;20.010;2022-11-20T07:13:50;98439.59;;;-5.43;100.00
23899;BME280;20544;50.018;20.010;2022-11-20T07:17:07;98438.09;;;-5.62;100.00
23899;BME280;20544;50.018;20.010;2022-11-20T07:20:24;98439.42;;;-5.40;100.00
23899;BME280;20544;50.018;20.010;2022-11-20T07:23:41;98440.24;;;-5.40;100.00
23899;BME280;20544;50.018;20.010;2022-11-20T07:26:58;98434.80;;;-5.49;100.00
23899;BME280;20544;50.018;20.010;2022-11-20T07:30:16;98437.80;;;-5.57;100.00
23899;BME280;20544;50.018;20.010;2022-11-20T07:33:37;98448.49;;;-5.63;100.00
23899;BME280;20544;50.018;20.010;2022-11-20T07:36:57;98447.42;;;-5.59;100.00
23899;BME280;20544;50.018;20.010;2022-11-20T07:40:15;98443.89;;;-5.58;100.00
23899;BME280;20544;50.018;20.010;2022-11-20T07:43:34;98454.22;;;-5.58;100.00
23899;BME280;20544;50.018;20.010;2022-11-20T07:46:55;98451.83;;;-5.61;100.00
23899;BME280;20544;50.018;20.010;2022-11-20T07:50:15;98451.64;;;-5.58;100.00
23899;BME280;20544;50.018;20.010;2022-11-20T07:53:35;98457.66;;;-5.58;100.00
23899;BME280;20544;50.018;20.010;2022-11-20T07:56:58;98465.94;;;-5.37;100.00
23899;BME280;20544;50.018;20.010;2022-11-20T08:00:20;98464.73;;;-5.31;100.00
23899;BME280;20544;50.018;20.010;2022-11-20T08:03:37;98469.38;;;-5.22;100.00
23899;BME280;20544;50.018;20.010;2022-11-20T08:06:55;98470.60;;;-5.13;100.00
23899;BME280;20544;50.018;20.010;2022-11-20T08:10:21;98475.15;;;-5.02;100.00
23899;BME280;20544;50.018;20.010;2022-11-20T08:13:39;98464.44;;;-4.96;100.00
23899;BME280;20544;50.018;20.010;2022-11-20T08:17:13;98459.81;;;-4.91;100.00
23899;BME280;20544;50.018;20.010;2022-11-20T08:24:19;98454.25;;;-4.70;100.00
23899;BME280;20544;50.018;20.010;2022-11-20T08:27:36;98456.13;;;-4.72;100.00
23899;BME280;20544;50.018;20.010;2022-11-20T08:30:57;98452.41;;;-4.68;100.00
23899;BME280;20544;50.018;20.010;2022-11-20T08:34:15;98448.91;;;-4.67;100.00
23899;BME280;20544;50.018;20.010;2022-11-20T08:37:49;98454.53;;;-4.60;100.00
23899;BME280;20544;50.018;20.010;2022-11-20T08:41:10;98442.77;;;-4.51;100.00
23899;BME280;20544;50.018;20.010;2022-11-20T08:44:41;98444.06;;;-4.44;100.00
23899;BME280;20544;50.018;20.010;2022-11-20T08:48:01;98442.94;;;-4.40;100.00
23899;BME280;20544;50.018;20.010;2022-11-20T08:51:22;98446.00;;;-4.33;100.00
23899;BME280;20544;50.018;20.010;2022-11-20T08:54:39;98445.52;;;-4.26;100.00
23899;BME280;20544;50.018;20.010;2022-11-20T08:57:56;98439.09;;;-4.20;100.00
23899;BME280;20544;50.018;20.010;2022-11-20T09:01:18;98431.92;;;-4.29;100.00
23899;BME280;20544;50.018;20.010;2022-11-20T09:04:37;98434.66;;;-4.18;100.00
23899;BME280;20544;50.018;20.010;2022-11-20T09:07:55;98439.03;;;-4.18;100.00
23899;BME280;20544;50.018;20.010;2022-11-20T09:11:14;98431.33;;;-4.20;100.00
23899;BME280;20544;50.018;20.010;2022-11-20T09:14:31;98426.20;;;-4.34;100.00
23899;BME280;20544;50.018;20.010;2022-11-20T09:17:53;98426.36;;;-4.23;100.00
23899;BME280;20544;50.018;20.010;2022-11-20T09:21:13;98420.36;;;-4.24;100.00
23899;BME280;20544;50.018;20.010;2022-11-20T09:24:37;98419.33;;;-4.21;100.00
23899;BME280;20544;50.018;20.010;2022-11-20T09:27:59;98416.73;;;-4.21;100.00
23899;BME280;20544;50.018;20.010;2022-11-20T09:31:19;98409.01;;;-4.08;100.00
23899;BME280;20544;50.018;20.010;2022-11-20T09:34:37;98416.10;;;-3.97;100.00
23899;BME280;20544;50.018;20.010;2022-11-20T09:37:54;98424.94;;;-3.87;100.00
23899;BME280;20544;50.018;20.010;2022-11-20T09:41:19;98420.63;;;-3.74;100.00
23899;BME280;20544;50.018;20.010;2022-11-20T09:45:00;98426.65;;;-3.60;100.00
23899;BME280;20544;50.018;20.010;2022-11-20T09:48:40;98437.02;;;-3.60;100.00
23899;BME280;20544;50.018;20.010;2022-11-20T09:52:10;98433.50;;;-3.59;100.00
23899;BME280;20544;50.018;20.010;2022-11-20T09:55:31;98432.28;;;-3.53;100.00
23899;BME280;20544;50.018;20.010;2022-11-20T09:58:50;98430.21;;;-3.48;100.00
23899;BME280;20544;50.018;20.010;2022-11-20T10:02:25;98431.58;;;-3.43;100.00
23899;BME280;20544;50.018;20.010;2022-11-20T10:05:41;98432.52;;;-3.44;100.00
23899;BME280;20544;50.018;20.010;2022-11-20T10:09:06;98432.63;;;-3.32;100.00
23899;BME280;20544;50.018;20.010;2022-11-20T10:12:36;98432.22;;;-3.26;100.00
23899;BME280;20544;50.018;20.010;2022-11-20T10:16:01;98434.29;;;-3.18;100.00
23899;BME280;20544;50.018;20.010;2022-11-20T10:19:30;98434.29;;;-3.18;100.00
23899;BME280;20544;50.018;20.010;2022-11-20T10:23:18;98434.92;;;-3.15;100.00
23899;BME280;20544;50.018;20.010;2022-11-20T10:26:44;98422.88;;;-3.16;100.00
23899;BME280;20544;50.018;20.010;2022-11-20T10:30:09;98431.39;;;-3.14;100.00
23899;BME280;20544;50.018;20.010;2022-11-20T10:33:29;98426.50;;;-3.05;100.00
23899;BME280;20544;50.018;20.010;2022-11-20T10:36:52;98427.46;;;-3.06;100.00
23899;BME280;20544;50.018;20.010;2022-11-20T10:40:22;98414.78;;;-3.11;100.00
23899;BME280;20544;50.018;20.010;2022-11-20T10:43:41;98410.00;;;-3.04;100.00
23899;BME280;20544;50.018;20.010;2022-11-20T10:46:58;98408.75;;;-3.12;100.00
23899;BME280;20544;50.018;20.010;2022-11-20T10:50:18;98405.73;;;-3.05;100.00
23899;BME280;20544;50.018;20.010;2022-11-20T10:53:53;98392.77;;;-2.93;100.00
23899;BME280;20544;50.018;20.010;2022-11-20T10:57:23;98386.42;;;-2.88;100.00
23899;BME280;20544;50.018;20.010;2022-11-20T11:00:42;98388.91;;;-2.87;100.00
23899;BME280;20544;50.018;20.010;2022-11-20T11:03:59;98383.80;;;-2.76;100.00
23899;BME280;20544;50.018;20.010;2022-11-20T11:07:19;98375.27;;;-2.65;100.00
23899;BME280;20544;50.018;20.010;2022-11-20T11:10:42;98365.06;;;-2.55;100.00
23899;BME280;20544;50.018;20.010;2022-11-20T11:14:08;98367.42;;;-2.52;100.00
23899;BME280;20544;50.018;20.010;2022-11-20T11:17:30;98361.70;;;-2.44;100.00
23899;BME280;20544;50.018;20.010;2022-11-20T11:20:54;98362.09;;;-2.37;100.00
23899;BME280;20544;50.018;20.010;2022-11-20T11:24:21;98350.53;;;-2.33;100.00
23899;BME280;20544;50.018;20.010;2022-11-20T11:27:50;98355.52;;;-2.30;100.00
23899;BME280;20544;50.018;20.010;2022-11-20T11:31:08;98348.09;;;-2.23;100.00
23899;BME280;20544;50.018;20.010;2022-11-20T11:34:28;98354.63;;;-2.18;100.00
23899;BME280;20544;50.018;20.010;2022-11-20T11:37:47;98354.88;;;-2.09;100.00
23899;BME280;20544;50.018;20.010;2022-11-20T11:41:11;98345.55;;;-2.12;100.00
23899;BME280;20544;50.018;20.010;2022-11-20T11:44:31;98342.62;;;-2.07;100.00
23899;BME280;20544;50.018;20.010;2022-11-20T11:48:08;98336.61;;;-2.08;100.00
23899;BME280;20544;50.018;20.010;2022-11-20T11:51:28;98332.50;;;-1.99;100.00
23899;BME280;20544;50.018;20.010;2022-11-20T11:54:55;98326.00;;;-1.93;100.00
23899;BME280;20544;50.018;20.010;2022-11-20T11:58:20;98309.13;;;-1.88;100.00
23899;BME280;20544;50.018;20.010;2022-11-20T12:01:47;98308.89;;;-1.85;100.00
23899;BME280;20544;50.018;20.010;2022-11-20T12:05:19;98305.14;;;-1.81;100.00
23899;BME280;20544;50.018;20.010;2022-11-20T12:08:42;98311.97;;;-1.80;100.00
23899;BME280;20544;50.018;20.010;2022-11-20T12:12:05;98312.57;;;-1.76;100.00
23899;BME280;20544;50.018;20.010;2022-11-20T12:15:33;98310.45;;;-1.71;100.00
23899;BME280;20544;50.018;20.010;2022-11-20T12:18:52;98313.56;;;-1.66;100.00
23899;BME280;20544;50.018;20.010;2022-11-20T12:22:13;98309.78;;;-1.61;100.00
23899;BME280;20544;50.018;20.010;2022-11-20T12:25:32;98319.12;;;-1.59;100.00
23899;BME280;20544;50.018;20.010;2022-11-20T12:28:55;98319.93;;;-1.58;100.00
23899;BME280;20544;50.018;20.010;2022-11-20T12:32:34;98322.31;;;-1.55;100.00
23899;BME280;20544;50.018;20.010;2022-11-20T12:36:04;98325.26;;;-1.60;100.00
23899;BME280;20544;50.018;20.010;2022-11-20T12:43:09;98320.66;;;-1.56;100.00
23899;BME280;20544;50.018;20.010;2022-11-20T12:46:43;98318.31;;;-1.48;100.00
23899;BME280;20544;50.018;20.010;2022-11-20T12:50:05;98310.05;;;-1.42;100.00
23899;BME280;20544;50.018;20.010;2022-11-20T12:53:28;98306.25;;;-1.38;100.00
23899;BME280;20544;50.018;20.010;2022-11-20T12:56:49;98307.79;;;-1.35;100.00
23899;BME280;20544;50.018;20.010;2022-11-20T13:00:14;98304.59;;;-1.39;100.00
23899;BME280;20544;50.018;20.010;2022-11-20T13:03:44;98296.06;;;-1.41;100.00
23899;BME280;20544;50.018;20.010;2022-11-20T13:07:06;98291.45;;;-1.37;100.00
23899;BME280;20544;50.018;20.010;2022-11-20T13:10:31;98285.69;;;-1.29;100.00
23899;BME280;20544;50.018;20.010;2022-11-20T13:14:00;98285.44;;;-1.26;100.00
23899;BME280;20544;50.018;20.010;2022-11-20T13:17:28;98274.30;;;-1.28;100.00
23899;BME280;20544;50.018;20.010;2022-11-20T13:20:47;98262.02;;;-1.26;100.00
23899;BME280;20544;50.018;20.010;2022-11-20T13:24:19;98269.82;;;-1.26;100.00
23899;BME280;20544;50.018;20.010;2022-11-20T13:27:36;98269.95;;;-1.28;100.00
23899;BME280;20544;50.018;20.010;2022-11-20T13:31:02;98273.23;;;-1.26;100.00
23899;BME280;20544;50.018;20.010;2022-11-20T13:34:24;98266.87;;;-1.22;100.00
23899;BME280;20544;50.018;20.010;2022-11-20T13:37:41;98243.31;;;-1.20;100.00
23899;BME280;20544;50.018;20.010;2022-11-20T13:40:59;98232.09;;;-1.21;100.00
23899;BME280;20544;50.018;20.010;2022-11-20T13:44:23;98236.45;;;-1.21;100.00
23899;BME280;20544;50.018;20.010;2022-11-20T13:47:48;98238.72;;;-1.28;100.00
23899;BME280;20544;50.018;20.010;2022-11-20T13:51:18;98236.34;;;-1.31;100.00
23899;BME280;20544;50.018;20.010;2022-11-20T13:54:58;98238.34;;;-1.35;100.00
23899;BME280;20544;50.018;20.010;2022-11-20T13:58:27;98240.95;;;-1.35;100.00
23899;BME280;20544;50.018;20.010;2022-11-20T14:01:48;98240.48;;;-1.40;100.00
23899;BME280;20544;50.018;20.010;2022-11-20T14:05:06;98238.73;;;-1.39;100.00
23899;BME280;20544;50.018;20.010;2022-11-20T14:08:33;98242.14;;;-1.39;100.00
23899;BME280;20544;50.018;20.010;2022-11-20T14:11:52;98248.76;;;-1.46;100.00
23899;BME280;20544;50.018;20.010;2022-11-20T14:15:31;98247.95;;;-1.47;100.00
23899;BME280;20544;50.018;20.010;2022-11-20T14:19:25;98247.47;;;-1.40;100.00
23899;BME280;20544;50.018;20.010;2022-11-20T14:22:49;98240.39;;;-1.38;100.00
23899;BME280;20544;50.018;20.010;2022-11-20T14:26:07;98224.77;;;-1.38;100.00
23899;BME280;20544;50.018;20.010;2022-11-20T14:29:28;98223.11;;;-1.39;100.00
23899;BME280;20544;50.018;20.010;2022-11-20T14:32:48;98231.27;;;-1.44;100.00
23899;BME280;20544;50.018;20.010;2022-11-20T14:36:15;98221.67;;;-1.43;100.00
23899;BME280;20544;50.018;20.010;2022-11-20T14:39:30;98232.09;;;-1.43;100.00
23899;BME280;20544;50.018;20.010;2022-11-20T14:42:48;98232.09;;;-1.43;100.00
23899;BME280;20544;50.018;20.010;2022-11-20T14:46:06;98226.06;;;-1.44;100.00
23899;BME280;20544;50.018;20.010;2022-11-20T14:49:26;98213.28;;;-1.47;100.00
23899;BME280;20544;50.018;20.010;2022-11-20T14:52:52;98210.21;;;-1.52;100.00
23899;BME280;20544;50.018;20.010;2022-11-20T14:56:11;98220.74;;;-1.54;100.00
23899;BME280;20544;50.018;20.010;2022-11-20T14:59:29;98205.61;;;-1.60;100.00
23899;BME280;20544;50.018;20.010;2022-11-20T15:02:45;98211.06;;;-1.63;100.00
23899;BME280;20544;50.018;20.010;2022-11-20T15:06:03;98202.80;;;-1.68;100.00
23899;BME280;20544;50.018;20.010;2022-11-20T15:09:21;98207.02;;;-1.67;100.00
23899;BME280;20544;50.018;20.010;2022-11-20T15:12:47;98200.53;;;-1.73;100.00
23899;BME280;20544;50.018;20.010;2022-11-20T15:16:12;98199.59;;;-1.72;100.00
23899;BME280;20544;50.018;20.010;2022-11-20T15:19:28;98206.89;;;-1.77;100.00
23899;BME280;20544;50.018;20.010;2022-11-20T15:22:44;98203.61;;;-1.79;100.00
23899;BME280;20544;50.018;20.010;2022-11-20T15:26:01;98212.59;;;-1.83;100.00
23899;BME280;20544;50.018;20.010;2022-11-20T15:29:22;98214.47;;;-1.85;100.00
23899;BME280;20544;50.018;20.010;2022-11-20T15:32:39;98195.33;;;-1.84;100.00
23899;BME280;20544;50.018;20.010;2022-11-20T15:35:56;98193.55;;;-1.84;100.00
23899;BME280;20544;50.018;20.010;2022-11-20T15:39:14;98188.34;;;-1.84;100.00
23899;BME280;20544;50.018;20.010;2022-11-20T15:42:31;98195.33;;;-1.84;100.00
23899;BME280;20544;50.018;20.010;2022-11-20T15:45:53;98179.02;;;-1.86;100.00
23899;BME280;20544;50.018;20.010;2022-11-20T15:49:14;98183.40;;;-1.87;100.00
23899;BME280;20544;50.018;20.010;2022-11-20T15:52:32;98180.20;;;-1.90;100.00
23899;BME280;20544;50.018;20.010;2022-11-20T15:55:49;98183.74;;;-1.91;100.00
23899;BME280;20544;50.018;20.010;2022-11-20T15:59:06;98177.70;;;-1.92;100.00
23899;BME280;20544;50.018;20.010;2022-11-20T16:02:23;98175.81;;;-1.90;100.00
23899;BME280;20544;50.018;20.010;2022-11-20T16:05:40;98169.67;;;-1.89;100.00
23899;BME280;20544;50.018;20.010;2022-11-20T16:08:56;98159.88;;;-1.85;100.00
23899;BME280;20544;50.018;20.010;2022-11-20T16:12:14;98164.48;;;-1.89;100.00
23899;BME280;20544;50.018;20.010;2022-11-20T16:15:40;98173.81;;;-1.86;100.00
23899;BME280;20544;50.018;20.010;2022-11-20T16:19:03;98181.27;;;-1.93;100.00
23899;BME280;20544;50.018;20.010;2022-11-20T16:22:27;98180.20;;;-1.90;100.00
23899;BME280;20544;50.018;20.010;2022-11-20T16:25:44;98183.40;;;-1.87;100.00
23899;BME280;20544;50.018;20.010;2022-11-20T16:29:03;98179.02;;;-1.86;100.00
23899;BME280;20544;50.018;20.010;2022-11-20T16:32:26;98189.28;;;-1.96;100.00
23899;BME280;20544;50.018;20.010;2022-11-20T16:35:43;98180.30;;;-1.92;100.00
23899;BME280;20544;50.018;20.010;2022-11-20T16:39:02;98173.00;;;-1.87;100.00
23899;BME280;20544;50.018;20.010;2022-11-20T16:42:18;98180.33;;;-1.81;100.00
23899;BME280;20544;50.018;20.010;2022-11-20T16:45:35;98175.81;;;-1.79;100.00
23899;BME280;20544;50.018;20.010;2022-11-20T16:48:57;98179.86;;;-1.74;100.00
23899;BME280;20544;50.018;20.010;2022-11-20T16:52:15;98176.28;;;-1.73;100.00
23899;BME280;20544;50.018;20.010;2022-11-20T16:55:31;98176.19;;;-1.72;100.00
23899;BME280;20544;50.018;20.010;2022-11-20T16:58:50;98181.14;;;-1.69;100.00
23899;BME280;20544;50.018;20.010;2022-11-20T17:02:07;98170.61;;;-1.67;100.00
23899;BME280;20544;50.018;20.010;2022-11-20T17:05:26;98177.34;;;-1.65;100.00
23899;BME280;20544;50.018;20.010;2022-11-20T17:08:44;98183.61;;;-1.67;100.00
23899;BME280;20544;50.018;20.010;2022-11-20T17:12:01;98181.39;;;-1.72;100.00
23899;BME280;20544;50.018;20.010;2022-11-20T17:15:18;98179.48;;;-1.70;100.00
23899;BME280;20544;50.018;20.010;2022-11-20T17:18:37;98176.41;;;-1.64;100.00
23899;BME280;20544;50.018;20.010;2022-11-20T17:21:54;98172.39;;;-1.56;100.00